This is the latest recevied weather packets stored in our database for station/object DN9EM-2. If no packets are shown the sender has not sent any weather packets the latest 1 day(s).
| Time | Temp. | Humidity | Pressure | Rain* | Wind** | Luminosity | Snow |
|---|---|---|---|---|---|---|---|
| 1778113828 | 8.89° C | 79% | 1012.7 hPa | 0 mm | - | - | - |
| 1778113225 | 8.89° C | 79% | 1012.6 hPa | 0 mm | - | - | - |
| 1778112623 | 9.44° C | 79% | 1012.5 hPa | 0 mm | - | - | - |
| 1778109670 | 9.44° C | 79% | 1012.5 hPa | 0 mm | - | - | - |
| 1778107862 | 9.44° C | 79% | 1012.4 hPa | 0 mm | - | - | - |
| 1778106054 | 9.44° C | 79% | 1012.2 hPa | 0 mm | - | - | - |
| 1778103041 | 10° C | 77% | 1012 hPa | 0 mm | - | - | - |
| 1778102438 | 10° C | 76% | 1011.9 hPa | 0 mm | - | - | - |
| 1778100028 | 10° C | 73% | 1012 hPa | 0 mm | - | - | - |
| 1778098220 | 10.56° C | 70% | 1011.8 hPa | 0 mm | - | - | - |
| 1778094056 | 11.67° C | 58% | 1011.2 hPa | 0 mm | - | - | - |
| 1778092237 | 12.22° C | 55% | 1011 hPa | 0 mm | - | - | - |
| 1778091032 | 12.22° C | 56% | 1010.9 hPa | 0 mm | - | - | - |
| 1778088670 | 12.78° C | 66% | 1010.6 hPa | 0 mm | - | - | - |
| 1778086856 | 12.78° C | 67% | 1010.4 hPa | 0 mm | - | - | - |
| 1778085036 | 13.33° C | 62% | 1010.4 hPa | 0 mm | - | - | - |
| 1778071847 | 14.44° C | 45% | 1010.9 hPa | 0 mm | - | - | - |
| 1778070636 | 14.44° C | 44% | 1010.8 hPa | 0 mm | - | - | - |
| 1778069425 | 15° C | 44% | 1010.8 hPa | 0 mm | - | - | - |
| 1778066461 | 14.44° C | 45% | 1010.5 hPa | 0 mm | - | - | - |
| 1778065256 | 13.89° C | 46% | 1010.6 hPa | 0 mm | - | - | - |
| 1778064648 | 13.33° C | 46% | 1010.6 hPa | 0 mm | - | - | - |
| 1778063437 | 13.33° C | 47% | 1010.5 hPa | 0 mm | - | - | - |
| 1778062232 | 13.33° C | 49% | 1010.5 hPa | 0 mm | - | - | - |
| 1778059870 | 12.78° C | 48% | 1010.5 hPa | 0 mm | - | - | - |
* Rain latest hour (hover to see other rain measurements)
** Current wind speed in m/s (hover to see current wind gust speed)